YPPD/PHE METAR and TAF weather

Enter ICAO airport designator
Station Type Date Time Source
YPPD METAR 2019/02/23 00:30 UTC NOAA

YPPD 230030Z AUTO 36007KT 9999 // NCD 32/23 Q1010 RF00.0/000.0


Station Type Date Time Source
YPPD Decoded METAR 2019/02/23 00:30 UTC NOAA

Port Hedland Pardoo, Australia (YPPD) 20-06S 119-34E 10M
Feb 22, 2019 - 07:30 PM EST / 2019.02.23 0030 UTC
Wind: from the N (360 degrees) at 8 MPH (7 KT):0
Visibility: greater than 7 mile(s):0
Temperature: 89 F (32 C)
Heat index: 96.8 F (36.0 C):1
Dew Point: 73 F (23 C)
Relative Humidity: 59%
Pressure (altimeter): 29.83 in. Hg (1010 hPa)
ob: YPPD 230030Z AUTO 36007KT 9999 // NCD 32/23 Q1010 RF00.0/000.0
cycle: 0

Station Type Date Time Source
YPPD TAF 2019/02/22 18:37 UTC NOAA

TAF YPPD 221707Z 2218/2318 27010KT 9999 SCT015
FM222300 27005KT CAVOK
FM230200 28014KT CAVOK
FM230600 30018KT CAVOK
TEMPO 2218/2220 9999 BKN012


Example: see airport list